Time;durP1;ratioP1;P1;durP2;ratioP2;P2;SDS_P1;SDS_P2;PMS_P1;PMS_P2;Temp;Humidity;BMP_temperature;BMP_pressure;BME280_temperature;BME280_humidity;BME280_pressure;Samples;Min_cycle;Max_cycle;Signal;HPM_P1;HPM_P2
2023/06/27 00:00:48;;;;;;;6.72;2.80;;;16.30;99.90;;;;;;5048305;28;20096;-69
2023/06/27 00:03:16;;;;;;;7.38;2.72;;;16.30;99.90;;;;;;5051194;28;20056;-71
2023/06/27 00:05:42;;;;;;;;;;;16.20;99.90;;;;;;5050821;28;20063;-69
2023/06/27 00:08:07;;;;;;;7.45;3.47;;;16.20;99.90;;;;;;5048736;28;19924;-71
2023/06/27 00:10:33;;;;;;;9.10;3.25;;;16.10;99.90;;;;;;5037676;28;20209;-70
2023/06/27 00:12:59;;;;;;;7.50;3.15;;;16.20;99.90;;;;;;5052513;28;21133;-71
2023/06/27 00:15:26;;;;;;;6.20;2.70;;;16.20;99.90;;;;;;5037298;28;20033;-69
2023/06/27 00:17:53;;;;;;;6.18;3.05;;;16.10;99.90;;;;;;5055067;28;20053;-68
2023/06/27 00:20:19;;;;;;;7.70;3.28;;;16.10;99.90;;;;;;5053684;28;20067;-69
2023/06/27 00:22:48;;;;;;;6.65;3.10;;;16.00;99.90;;;;;;5035805;28;20487;-69
2023/06/27 00:25:13;;;;;;;8.55;3.08;;;16.00;99.90;;;;;;5049939;28;20044;-69
2023/06/27 00:27:39;;;;;;;8.90;3.08;;;16.00;99.90;;;;;;5048664;28;20148;-71
2023/06/27 00:30:06;;;;;;;6.97;3.25;;;15.90;99.90;;;;;;5047945;28;20123;-69
2023/06/27 00:32:32;;;;;;;10.15;3.40;;;15.80;99.90;;;;;;5032533;28;20056;-72
2023/06/27 00:34:58;;;;;;;9.80;3.85;;;15.80;99.90;;;;;;5052043;28;20037;-70
2023/06/27 00:37:23;;;;;;;7.20;3.00;;;15.80;99.90;;;;;;5052966;28;22089;-69
2023/06/27 00:39:49;;;;;;;4.90;3.03;;;15.70;99.90;;;;;;5034090;28;20080;-69
2023/06/27 00:42:15;;;;;;;6.85;3.60;;;15.70;99.90;;;;;;5053058;28;20048;-69
2023/06/27 00:44:40;;;;;;;6.88;3.38;;;15.60;99.90;;;;;;5054655;28;20047;-70
2023/06/27 00:47:06;;;;;;;7.00;3.50;;;15.60;99.90;;;;;;5052974;28;20071;-69
2023/06/27 00:49:32;;;;;;;9.65;4.05;;;15.60;99.90;;;;;;5049067;28;20106;-68
2023/06/27 00:51:59;;;;;;;8.45;3.80;;;15.50;99.90;;;;;;5040146;28;20406;-69
2023/06/27 00:54:25;;;;;;;9.52;3.88;;;15.50;99.90;;;;;;5036354;28;20131;-69
2023/06/27 00:56:56;;;;;;;8.07;3.38;;;15.40;99.90;;;;;;5056484;28;20040;-69
2023/06/27 00:59:22;;;;;;;8.10;3.55;;;15.40;99.90;;;;;;5056944;28;20048;-69
2023/06/27 01:01:48;;;;;;;7.13;3.90;;;15.40;99.90;;;;;;5046416;28;20060;-68
2023/06/27 01:04:15;;;;;;;9.45;3.78;;;15.40;99.90;;;;;;5049478;28;20044;-69
2023/06/27 01:06:59;;;;;;;8.88;4.20;;;15.30;99.90;;;;;;5054723;28;20044;-69
2023/06/27 01:09:55;;;;;;;9.20;4.25;;;15.40;99.90;;;;;;5052899;28;21252;-68
2023/06/27 01:12:26;;;;;;;9.30;3.67;;;15.40;99.90;;;;;;5051655;28;20190;-69
2023/06/27 01:14:56;;;;;;;10.23;4.20;;;15.30;99.90;;;;;;5057883;28;20890;-69
2023/06/27 01:17:22;;;;;;;7.30;3.40;;;15.30;99.90;;;;;;5054029;28;20040;-70
2023/06/27 01:19:49;;;;;;;7.82;3.72;;;15.30;99.90;;;;;;5056998;28;20499;-69
2023/06/27 01:22:18;;;;;;;7.80;3.90;;;15.30;99.90;;;;;;5045829;28;20130;-71
2023/06/27 01:24:45;;;;;;;7.43;4.32;;;15.30;99.90;;;;;;5047159;28;20500;-69
2023/06/27 01:27:13;;;;;;;8.60;4.22;;;15.20;99.90;;;;;;5057206;28;20051;-68
2023/06/27 01:29:42;;;;;;;7.78;4.10;;;15.20;99.90;;;;;;5055761;28;20047;-71
2023/06/27 01:32:16;;;;;;;5.30;4.00;;;15.20;99.90;;;;;;5029884;28;20037;-68
2023/06/27 01:34:50;;;;;;;6.47;3.90;;;15.20;99.90;;;;;;5053564;28;20056;-70
2023/06/27 01:37:25;;;;;;;7.65;4.40;;;15.10;99.90;;;;;;5033237;28;20652;-68
2023/06/27 01:39:57;;;;;;;7.40;4.15;;;15.10;99.90;;;;;;5037276;28;20053;-69
2023/06/27 01:42:37;;;;;;;8.55;4.45;;;15.00;99.90;;;;;;5058793;28;20048;-69
2023/06/27 01:45:04;;;;;;;6.63;4.28;;;15.00;99.90;;;;;;5046051;28;20057;-70
2023/06/27 01:47:30;;;;;;;7.22;4.20;;;15.00;99.90;;;;;;5055229;28;20048;-69
2023/06/27 01:49:56;;;;;;;5.77;3.73;;;15.00;99.90;;;;;;5048888;28;20160;-69
2023/06/27 01:52:22;;;;;;;6.15;4.10;;;14.90;99.90;;;;;;5049469;28;20059;-68
2023/06/27 01:54:48;;;;;;;5.78;3.90;;;14.90;99.90;;;;;;5059215;28;20040;-68
2023/06/27 01:57:13;;;;;;;7.05;4.32;;;14.90;99.90;;;;;;5053633;28;20051;-72
2023/06/27 01:59:39;;;;;;;7.68;4.47;;;14.90;99.90;;;;;;5051631;28;21932;-70
2023/06/27 02:02:05;;;;;;;7.80;4.22;;;14.80;99.90;;;;;;5033235;28;20810;-68
2023/06/27 02:04:31;;;;;;;8.18;4.88;;;14.80;99.90;;;;;;5059350;28;20044;-71
2023/06/27 02:06:57;;;;;;;6.40;4.45;;;14.70;99.90;;;;;;5049281;28;22026;-69
2023/06/27 02:09:22;;;;;;;8.63;4.35;;;14.70;99.90;;;;;;5046941;28;20076;-68
2023/06/27 02:11:48;;;;;;;7.57;4.20;;;14.70;99.90;;;;;;5055326;28;20049;-71
2023/06/27 02:14:14;;;;;;;5.75;4.10;;;14.70;99.90;;;;;;5057083;28;20394;-69
2023/06/27 02:16:39;;;;;;;9.27;4.60;;;14.80;99.90;;;;;;5049596;28;20691;-68
2023/06/27 02:19:05;;;;;;;7.22;4.15;;;14.70;99.90;;;;;;5053663;28;20494;-70
2023/06/27 02:21:31;;;;;;;8.23;4.30;;;14.70;99.90;;;;;;5052857;28;20044;-68
2023/06/27 02:23:56;;;;;;;9.05;4.65;;;14.70;99.90;;;;;;5056284;28;20055;-69
2023/06/27 02:26:22;;;;;;;7.18;4.95;;;14.60;99.90;;;;;;5048986;28;20046;-69
2023/06/27 02:28:48;;;;;;;9.50;4.95;;;14.60;99.90;;;;;;5036776;28;20534;-68
2023/06/27 02:31:14;;;;;;;7.35;4.72;;;14.60;99.90;;;;;;5050109;28;20048;-69
2023/06/27 02:33:39;;;;;;;7.65;4.90;;;14.60;99.90;;;;;;5050728;28;20040;-68
2023/06/27 02:36:06;;;;;;;8.30;4.82;;;14.60;99.90;;;;;;5048299;28;20103;-69
2023/06/27 02:38:31;;;;;;;7.47;5.20;;;14.60;99.90;;;;;;5053223;28;20044;-69
2023/06/27 02:40:57;;;;;;;8.80;5.18;;;14.60;99.90;;;;;;5051404;28;20075;-69
2023/06/27 02:43:23;;;;;;;7.18;5.00;;;14.60;99.90;;;;;;5056357;28;20410;-69
2023/06/27 02:45:49;;;;;;;9.00;5.15;;;14.60;99.90;;;;;;5054590;28;20476;-69
2023/06/27 02:48:14;;;;;;;7.68;5.28;;;14.70;99.90;;;;;;5057553;28;20048;-69
2023/06/27 02:50:40;;;;;;;8.90;4.85;;;14.70;99.90;;;;;;5044843;28;20097;-68
2023/06/27 02:53:06;;;;;;;8.15;5.20;;;14.70;99.90;;;;;;5032042;28;20124;-71
2023/06/27 02:55:31;;;;;;;8.10;5.28;;;14.70;99.90;;;;;;5036770;28;20052;-69
2023/06/27 02:57:57;;;;;;;9.98;5.07;;;14.70;99.90;;;;;;5055316;28;20087;-68
2023/06/27 03:00:23;;;;;;;6.32;4.80;;;14.70;99.90;;;;;;5049635;28;20822;-69
2023/06/27 03:02:49;;;;;;;9.30;5.10;;;14.60;99.90;;;;;;5028179;28;20795;-69
2023/06/27 03:05:14;;;;;;;9.63;5.25;;;14.60;99.90;;;;;;5052912;28;20051;-69
2023/06/27 03:07:40;;;;;;;6.72;4.93;;;14.60;99.90;;;;;;5053398;28;20058;-68
2023/06/27 03:10:06;;;;;;;8.32;5.07;;;14.60;99.90;;;;;;5054344;28;20048;-71
2023/06/27 03:12:32;;;;;;;10.27;5.47;;;14.50;99.90;;;;;;5049088;28;20047;-68
2023/06/27 03:14:58;;;;;;;7.72;5.10;;;14.50;99.90;;;;;;5048941;28;20037;-70
2023/06/27 03:17:24;;;;;;;9.23;5.05;;;14.50;99.90;;;;;;5051909;28;20060;-69
2023/06/27 03:19:50;;;;;;;8.27;5.20;;;14.50;99.90;;;;;;5051979;28;20078;-69
2023/06/27 03:22:16;;;;;;;9.88;5.18;;;14.50;99.90;;;;;;5051224;28;20127;-69
2023/06/27 03:24:42;;;;;;;7.95;4.88;;;14.50;99.90;;;;;;5028835;28;20052;-69
2023/06/27 03:27:07;;;;;;;9.18;5.40;;;14.50;99.90;;;;;;5057170;28;20064;-68
2023/06/27 03:29:33;;;;;;;9.55;5.10;;;14.50;99.90;;;;;;5044825;28;20038;-68
2023/06/27 03:31:59;;;;;;;9.23;5.85;;;14.50;99.90;;;;;;5031424;28;20047;-69
2023/06/27 03:34:25;;;;;;;8.88;5.28;;;14.50;99.90;;;;;;5055342;28;20047;-69
2023/06/27 03:36:51;;;;;;;8.88;6.00;;;14.50;99.90;;;;;;5051906;28;20101;-69
2023/06/27 03:39:16;;;;;;;8.80;5.30;;;14.50;99.90;;;;;;5051743;28;20053;-69
2023/06/27 03:41:42;;;;;;;7.95;5.10;;;14.50;99.90;;;;;;5046748;28;20627;-69
2023/06/27 03:44:08;;;;;;;10.50;6.00;;;14.50;99.90;;;;;;5050700;28;20427;-69
2023/06/27 03:46:34;;;;;;;8.48;5.75;;;14.50;99.90;;;;;;5049681;28;20510;-68
2023/06/27 03:49:00;;;;;;;9.95;5.90;;;14.60;99.90;;;;;;5055108;28;20048;-70
2023/06/27 03:51:26;;;;;;;13.13;6.95;;;14.60;99.90;;;;;;5047225;28;20060;-71
2023/06/27 03:53:52;;;;;;;9.02;5.95;;;14.60;99.90;;;;;;5040774;28;20665;-71
2023/06/27 03:56:18;;;;;;;10.15;5.88;;;14.60;99.90;;;;;;5030643;28;20057;-68
2023/06/27 03:58:44;;;;;;;12.20;6.30;;;14.70;99.90;;;;;;5050061;28;20080;-68
2023/06/27 04:01:11;;;;;;;11.20;6.68;;;14.70;99.90;;;;;;5048831;28;20399;-69
2023/06/27 04:03:36;;;;;;;12.00;6.43;;;14.80;99.90;;;;;;5051668;28;20049;-69
2023/06/27 04:06:02;;;;;;;13.18;6.20;;;14.80;99.90;;;;;;5047725;28;20063;-70
2023/06/27 04:08:28;;;;;;;12.23;6.93;;;14.90;99.90;;;;;;5052986;28;21551;-69
2023/06/27 04:10:53;;;;;;;11.48;6.60;;;15.00;99.90;;;;;;5050415;28;20539;-70
2023/06/27 04:13:19;;;;;;;9.73;6.60;;;15.00;99.90;;;;;;5049620;28;20043;-70
2023/06/27 04:15:45;;;;;;;9.27;6.80;;;15.00;99.90;;;;;;5050029;28;20097;-70
2023/06/27 04:18:10;;;;;;;10.18;7.10;;;15.10;99.90;;;;;;5042181;28;20053;-70
2023/06/27 04:20:36;;;;;;;10.55;7.22;;;15.10;99.90;;;;;;5044006;28;20025;-69
2023/06/27 04:23:03;;;;;;;10.23;6.82;;;15.20;99.90;;;;;;5048846;28;20055;-68
2023/06/27 04:25:33;;;;;;;9.30;6.78;;;15.20;99.90;;;;;;5043559;28;20032;-71
2023/06/27 04:27:59;;;;;;;10.55;7.20;;;15.30;99.90;;;;;;5050117;28;20674;-70
2023/06/27 04:30:25;;;;;;;10.07;7.38;;;15.30;99.90;;;;;;5051937;28;20053;-72
2023/06/27 04:32:51;;;;;;;9.85;7.75;;;15.30;99.90;;;;;;5047557;28;20419;-69
2023/06/27 04:35:18;;;;;;;10.63;7.38;;;15.40;99.90;;;;;;5051601;28;20056;-71
2023/06/27 04:37:44;;;;;;;12.18;7.50;;;15.50;99.90;;;;;;5051271;28;20041;-69
2023/06/27 04:40:10;;;;;;;11.43;7.57;;;15.50;99.90;;;;;;5052615;28;20667;-69
2023/06/27 04:42:37;;;;;;;12.20;8.10;;;15.60;99.90;;;;;;5028886;28;20087;-70
2023/06/27 04:45:03;;;;;;;10.77;7.57;;;15.60;99.90;;;;;;5056580;28;20745;-69
2023/06/27 04:47:29;;;;;;;12.20;8.68;;;15.70;99.90;;;;;;5054727;28;20044;-71
2023/06/27 04:49:55;;;;;;;12.30;8.48;;;15.70;99.90;;;;;;5052182;28;20110;-72
2023/06/27 04:52:26;;;;;;;10.77;8.35;;;15.80;99.90;;;;;;5053697;28;20472;-72
2023/06/27 04:54:52;;;;;;;15.80;9.52;;;15.90;99.90;;;;;;5047440;28;20045;-69
2023/06/27 04:57:20;;;;;;;10.35;8.95;;;15.90;99.90;;;;;;5045131;28;20899;-68
2023/06/27 04:59:46;;;;;;;11.35;8.68;;;16.00;99.90;;;;;;5030118;28;20059;-71
2023/06/27 05:02:12;;;;;;;11.40;8.50;;;16.00;99.90;;;;;;5035511;28;20056;-68
2023/06/27 05:04:37;;;;;;;15.25;9.15;;;16.10;99.90;;;;;;5054085;28;20051;-69
2023/06/27 05:07:04;;;;;;;14.05;9.13;;;16.20;99.90;;;;;;5035372;28;20048;-69
2023/06/27 05:09:30;;;;;;;14.35;9.50;;;16.30;99.90;;;;;;5042333;28;20051;-68
2023/06/27 05:11:56;;;;;;;16.40;9.60;;;16.30;99.90;;;;;;5047858;28;20044;-70
2023/06/27 05:14:22;;;;;;;14.05;9.20;;;16.40;99.90;;;;;;5033252;28;20052;-72
2023/06/27 05:16:47;;;;;;;16.50;9.77;;;16.50;99.90;;;;;;5049168;28;20040;-70
2023/06/27 05:19:13;;;;;;;12.60;9.38;;;16.60;99.90;;;;;;5047393;28;20075;-73
2023/06/27 05:21:39;;;;;;;14.85;9.27;;;16.60;99.90;;;;;;5040241;28;20053;-72
2023/06/27 05:24:05;;;;;;;13.35;9.15;;;16.70;99.90;;;;;;5024793;28;20135;-72
2023/06/27 05:26:35;;;;;;;13.70;9.77;;;16.80;99.90;;;;;;5033113;28;20040;-73
2023/06/27 05:29:01;;;;;;;14.23;9.10;;;16.90;99.90;;;;;;5028907;28;20079;-72
2023/06/27 05:31:27;;;;;;;13.05;8.98;;;17.00;99.90;;;;;;5040677;28;20045;-73
2023/06/27 05:33:54;;;;;;;13.88;8.73;;;17.10;99.90;;;;;;5052936;28;20051;-73
2023/06/27 05:36:19;;;;;;;14.97;9.37;;;17.20;99.90;;;;;;5046193;28;20515;-75
2023/06/27 05:38:45;;;;;;;12.13;8.38;;;17.30;99.90;;;;;;5030864;28;20299;-73
2023/06/27 05:41:11;;;;;;;13.05;8.93;;;17.30;99.90;;;;;;5034083;28;20048;-73
2023/06/27 05:43:36;;;;;;;15.00;8.15;;;17.40;99.90;;;;;;5030921;28;20165;-73
2023/06/27 05:46:02;;;;;;;12.90;8.25;;;17.50;99.90;;;;;;5054409;28;20631;-73
2023/06/27 05:48:28;;;;;;;14.18;7.93;;;17.60;99.90;;;;;;5050409;28;20048;-73
2023/06/27 05:50:54;;;;;;;15.23;7.95;;;17.70;99.90;;;;;;5024400;28;20075;-73
2023/06/27 05:53:19;;;;;;;13.25;7.57;;;17.70;99.90;;;;;;5050962;28;20037;-74
2023/06/27 05:55:45;;;;;;;11.85;7.47;;;17.70;99.90;;;;;;5035458;28;20040;-73
2023/06/27 05:58:11;;;;;;;18.48;7.97;;;17.80;99.90;;;;;;5052408;28;20060;-73
2023/06/27 06:00:37;;;;;;;10.20;7.13;;;17.90;99.90;;;;;;5027461;28;20542;-74
2023/06/27 06:03:03;;;;;;;15.27;8.10;;;18.00;99.90;;;;;;5025262;28;20127;-74
2023/06/27 06:05:32;;;;;;;12.32;7.60;;;18.00;99.90;;;;;;5043881;28;20097;-74
2023/06/27 06:07:58;;;;;;;11.65;7.70;;;18.10;99.90;;;;;;5026064;28;20505;-73
2023/06/27 06:10:23;;;;;;;11.95;7.30;;;18.20;99.90;;;;;;5050867;28;20139;-74
2023/06/27 06:12:49;;;;;;;10.98;6.90;;;18.20;99.90;;;;;;5037603;28;20053;-73
2023/06/27 06:15:15;;;;;;;13.07;6.85;;;18.30;99.90;;;;;;5024351;28;20123;-75
2023/06/27 06:17:41;;;;;;;12.73;6.53;;;18.40;99.90;;;;;;5025893;28;20056;-74
2023/06/27 06:20:10;;;;;;;13.00;6.18;;;18.40;99.90;;;;;;5054581;28;20083;-74
2023/06/27 06:22:37;;;;;;;14.63;6.63;;;18.50;99.90;;;;;;5053930;28;20102;-74
2023/06/27 06:25:03;;;;;;;11.75;6.32;;;18.60;99.90;;;;;;5023173;28;20049;-74
2023/06/27 06:27:29;;;;;;;12.80;6.73;;;18.70;99.90;;;;;;5031142;28;20055;-73
2023/06/27 06:29:55;;;;;;;11.25;5.72;;;18.70;99.90;;;;;;5047449;28;20303;-74
2023/06/27 06:32:20;;;;;;;10.43;5.18;;;18.80;99.90;;;;;;5049995;28;20847;-73
2023/06/27 06:34:46;;;;;;;10.55;5.50;;;18.80;99.90;;;;;;5029832;28;20052;-73
2023/06/27 06:37:13;;;;;;;11.15;5.50;;;18.90;99.90;;;;;;5063172;28;20055;-73
2023/06/27 06:39:39;;;;;;;11.52;5.00;;;18.90;99.90;;;;;;5037769;28;20052;-73
2023/06/27 06:42:05;;;;;;;13.07;5.10;;;19.00;99.90;;;;;;5055418;28;20044;-72
2023/06/27 06:44:30;;;;;;;8.75;4.90;;;19.00;99.90;;;;;;5033969;28;20052;-73
2023/06/27 06:46:56;;;;;;;9.63;4.22;;;19.10;99.90;;;;;;5034578;28;20162;-72
2023/06/27 06:49:22;;;;;;;8.23;3.60;;;19.20;99.90;;;;;;5031335;28;20040;-73
2023/06/27 06:51:47;;;;;;;9.02;2.90;;;19.30;99.90;;;;;;5036410;28;20041;-73
2023/06/27 06:54:13;;;;;;;7.72;2.83;;;19.30;99.90;;;;;;5045932;28;20047;-72
2023/06/27 06:56:38;;;;;;;8.25;2.38;;;19.30;99.90;;;;;;5051484;28;20044;-73
2023/06/27 06:59:06;;;;;;;6.93;2.10;;;19.40;99.90;;;;;;5052790;28;20044;-73
2023/06/27 07:01:32;;;;;;;7.32;2.40;;;19.50;99.90;;;;;;5031379;28;20499;-73
2023/06/27 07:03:57;;;;;;;5.70;2.17;;;19.50;99.90;;;;;;5029376;28;20054;-72
2023/06/27 07:06:23;;;;;;;8.57;2.80;;;19.60;99.90;;;;;;5035573;28;20040;-72
2023/06/27 07:08:49;;;;;;;6.68;2.20;;;19.70;99.90;;;;;;5050048;28;20077;-72
2023/06/27 07:11:15;;;;;;;7.65;2.03;;;19.80;99.90;;;;;;5052321;28;20167;-73
2023/06/27 07:13:40;;;;;;;5.22;1.67;;;19.90;99.90;;;;;;5053935;28;20125;-73
2023/06/27 07:16:06;;;;;;;7.13;2.10;;;19.90;99.90;;;;;;5055600;28;20056;-73
2023/06/27 07:18:32;;;;;;;4.85;1.98;;;20.00;99.90;;;;;;5031137;28;20052;-73
2023/06/27 07:20:57;;;;;;;5.97;1.92;;;20.10;99.90;;;;;;5036167;28;20048;-72
2023/06/27 07:23:23;;;;;;;6.25;1.70;;;20.10;99.90;;;;;;5046442;28;20757;-70
2023/06/27 07:25:48;;;;;;;4.72;1.52;;;20.20;99.90;;;;;;5053787;28;20723;-71
2023/06/27 07:28:14;;;;;;;5.53;1.80;;;20.30;99.90;;;;;;5053936;28;20052;-71
2023/06/27 07:30:45;;;;;;;7.65;1.90;;;20.30;99.90;;;;;;5053136;28;20044;-74
2023/06/27 07:33:14;;;;;;;6.22;1.67;;;20.30;99.90;;;;;;5029199;28;20064;-73
2023/06/27 07:35:39;;;;;;;4.53;1.85;;;20.40;99.50;;;;;;5042006;28;20084;-73
2023/06/27 07:38:05;;;;;;;7.35;1.60;;;20.40;99.60;;;;;;5055356;28;20457;-72
2023/06/27 07:40:31;;;;;;;4.82;1.30;;;20.50;99.60;;;;;;5036105;28;20043;-74
2023/06/27 07:42:56;;;;;;;6.70;1.80;;;20.50;99.10;;;;;;5057808;28;20070;-73
2023/06/27 07:45:22;;;;;;;6.63;1.33;;;20.50;98.50;;;;;;5040307;28;20053;-73
2023/06/27 07:47:47;;;;;;;5.63;1.35;;;20.40;98.30;;;;;;5041239;28;20052;-73
2023/06/27 07:50:13;;;;;;;4.20;1.38;;;20.40;98.50;;;;;;5038723;28;20193;-73
2023/06/27 07:52:39;;;;;;;8.15;1.58;;;20.50;98.20;;;;;;5041037;28;20376;-74
2023/06/27 07:55:06;;;;;;;6.20;1.70;;;20.60;97.90;;;;;;5054161;28;20052;-73
2023/06/27 07:57:32;;;;;;;4.57;1.40;;;20.60;97.80;;;;;;5035552;28;20051;-74
2023/06/27 07:59:57;;;;;;;6.70;1.50;;;20.70;97.90;;;;;;5058175;28;20052;-73
2023/06/27 08:02:23;;;;;;;5.55;1.65;;;20.90;97.30;;;;;;5057676;28;20793;-73
2023/06/27 08:04:49;;;;;;;5.25;1.65;;;20.90;97.40;;;;;;5035750;28;20083;-72
2023/06/27 08:07:14;;;;;;;4.00;1.30;;;21.00;97.30;;;;;;5054308;28;20045;-72
2023/06/27 08:09:40;;;;;;;5.20;1.45;;;21.10;97.30;;;;;;5031895;28;20047;-74
2023/06/27 08:12:06;;;;;;;6.05;1.83;;;21.20;96.80;;;;;;5037309;28;20407;-72
2023/06/27 08:14:32;;;;;;;9.50;2.00;;;21.20;96.40;;;;;;5028379;28;20395;-72
2023/06/27 08:16:59;;;;;;;4.40;1.40;;;21.10;95.80;;;;;;5050498;28;20298;-73
2023/06/27 08:19:25;;;;;;;;;;;21.10;95.60;;;;;;5052541;28;20052;-72
2023/06/27 08:21:51;;;;;;;5.97;1.58;;;21.10;95.70;;;;;;5051582;28;19931;-74
2023/06/27 08:24:16;;;;;;;4.32;1.27;;;21.00;96.10;;;;;;5054183;28;20450;-74
2023/06/27 08:26:44;;;;;;;5.13;1.50;;;20.90;95.50;;;;;;5040478;28;20036;-74
2023/06/27 08:29:10;;;;;;;4.70;1.67;;;20.90;95.20;;;;;;5041283;28;20462;-73
2023/06/27 08:31:36;;;;;;;6.10;1.42;;;20.80;95.20;;;;;;5054535;28;20048;-74
2023/06/27 08:34:02;;;;;;;5.03;1.40;;;20.70;95.60;;;;;;5034173;28;20131;-73
2023/06/27 08:36:27;;;;;;;5.47;1.50;;;20.70;96.10;;;;;;5054145;28;20052;-73
2023/06/27 08:38:53;;;;;;;5.35;1.63;;;20.70;96.70;;;;;;5057147;28;20094;-73
2023/06/27 08:41:18;;;;;;;4.18;1.30;;;20.70;96.10;;;;;;5040258;28;20044;-74
2023/06/27 08:43:44;;;;;;;5.53;1.30;;;20.60;95.90;;;;;;5046914;28;20539;-74
2023/06/27 08:46:10;;;;;;;4.05;1.30;;;20.60;95.70;;;;;;5035864;28;20450;-73
2023/06/27 08:48:39;;;;;;;6.30;1.80;;;20.60;95.70;;;;;;5054823;28;20075;-74
2023/06/27 08:51:07;;;;;;;6.63;1.60;;;20.70;95.90;;;;;;5030975;28;20052;-74
2023/06/27 08:53:36;;;;;;;5.40;1.35;;;20.80;95.50;;;;;;5038019;28;20047;-74
2023/06/27 08:56:09;;;;;;;5.05;1.20;;;20.90;95.40;;;;;;5056850;28;20702;-73
2023/06/27 08:58:46;;;;;;;5.47;1.30;;;21.10;95.20;;;;;;5049442;28;20503;-74
2023/06/27 09:01:11;;;;;;;7.18;1.45;;;21.20;95.10;;;;;;5039161;28;20071;-73
2023/06/27 09:03:37;;;;;;;6.95;1.95;;;21.40;95.00;;;;;;5055313;28;20138;-73
2023/06/27 09:06:05;;;;;;;3.75;1.50;;;21.60;94.70;;;;;;5033245;28;20045;-72
2023/06/27 09:08:33;;;;;;;;;;;21.70;93.80;;;;;;5051645;28;20040;-72
2023/06/27 09:11:00;;;;;;;3.65;1.20;;;21.80;92.60;;;;;;5060179;28;20382;-73
2023/06/27 09:13:27;;;;;;;5.00;1.17;;;21.80;93.20;;;;;;5052451;28;20059;-73
2023/06/27 09:15:53;;;;;;;3.88;1.40;;;21.80;92.40;;;;;;5036038;28;20174;-74
2023/06/27 09:18:19;;;;;;;4.45;1.60;;;21.80;91.40;;;;;;5053641;28;20041;-73
2023/06/27 09:20:45;;;;;;;4.70;1.52;;;21.80;90.60;;;;;;5060445;28;20601;-73
2023/06/27 09:23:11;;;;;;;6.63;1.40;;;21.80;89.10;;;;;;5058670;28;20048;-73
2023/06/27 09:25:37;;;;;;;3.55;1.25;;;21.80;89.20;;;;;;5058305;28;20467;-73
2023/06/27 09:28:18;;;;;;;5.32;1.20;;;21.90;88.10;;;;;;5058676;28;20051;-73
2023/06/27 09:30:55;;;;;;;7.45;1.23;;;21.90;87.30;;;;;;5052573;28;20051;-73
2023/06/27 09:33:20;;;;;;;3.20;1.38;;;22.00;85.10;;;;;;5055502;28;20032;-73
2023/06/27 09:35:46;;;;;;;6.63;1.20;;;22.00;87.80;;;;;;5054034;28;20074;-73
2023/06/27 09:38:12;;;;;;;7.93;1.38;;;22.10;85.20;;;;;;5042897;28;20127;-73
2023/06/27 09:40:38;;;;;;;3.45;1.33;;;22.10;85.90;;;;;;5061470;28;20052;-73
2023/06/27 09:43:06;;;;;;;3.15;1.02;;;22.20;84.00;;;;;;5057321;28;20040;-73
2023/06/27 09:45:32;;;;;;;4.65;1.35;;;22.20;82.60;;;;;;5041594;28;20041;-73
2023/06/27 09:47:58;;;;;;;6.10;1.15;;;22.20;83.40;;;;;;5038941;28;20102;-73
2023/06/27 09:50:31;;;;;;;3.55;1.10;;;22.10;83.20;;;;;;5035210;28;20048;-72
2023/06/27 09:53:02;;;;;;;5.38;1.20;;;22.20;83.20;;;;;;5058408;28;20059;-73
2023/06/27 09:55:28;;;;;;;6.28;1.40;;;22.20;83.20;;;;;;5042609;28;20040;-73
2023/06/27 09:57:54;;;;;;;1.92;0.85;;;22.20;82.70;;;;;;5028706;28;20098;-73
2023/06/27 10:00:21;;;;;;;5.13;1.20;;;22.10;83.00;;;;;;5058010;28;20068;-72
2023/06/27 10:02:48;;;;;;;;;;;22.10;81.90;;;;;;5046754;28;20083;-73
2023/06/27 10:05:14;;;;;;;4.57;1.17;;;22.00;80.80;;;;;;5037525;28;19920;-72
2023/06/27 10:07:40;;;;;;;5.53;1.00;;;22.00;82.00;;;;;;5052861;28;20044;-72
2023/06/27 10:10:07;;;;;;;3.03;0.90;;;22.00;82.30;;;;;;5032411;28;20063;-74
2023/06/27 10:12:33;;;;;;;5.40;1.25;;;22.00;82.40;;;;;;5033416;28;20044;-74
2023/06/27 10:14:59;;;;;;;5.47;1.33;;;22.00;84.20;;;;;;5034824;28;20056;-73
2023/06/27 10:17:28;;;;;;;4.40;1.10;;;22.20;84.70;;;;;;5032343;28;20086;-73
2023/06/27 10:19:54;;;;;;;3.30;1.10;;;22.40;85.80;;;;;;5058652;28;20048;-73
2023/06/27 10:22:21;;;;;;;4.32;1.05;;;22.60;85.80;;;;;;5039348;28;20048;-72
2023/06/27 10:24:51;;;;;;;5.15;1.30;;;22.80;86.50;;;;;;5050417;28;20183;-74
2023/06/27 10:27:21;;;;;;;5.22;1.40;;;23.00;85.40;;;;;;5036910;28;21273;-74
2023/06/27 10:29:47;;;;;;;7.07;1.60;;;23.10;83.10;;;;;;5032884;28;20048;-73
2023/06/27 10:32:16;;;;;;;3.28;1.23;;;23.10;82.40;;;;;;5046333;28;20040;-75
2023/06/27 10:34:43;;;;;;;3.50;0.93;;;23.10;80.80;;;;;;5044839;28;20052;-74
2023/06/27 10:37:10;;;;;;;4.07;0.98;;;23.20;81.10;;;;;;5035449;28;20049;-73
2023/06/27 10:39:37;;;;;;;5.20;1.15;;;23.20;80.10;;;;;;5036650;28;20044;-73
2023/06/27 10:42:15;;;;;;;5.05;1.25;;;23.20;79.50;;;;;;5037575;28;20044;-73
2023/06/27 10:44:59;;;;;;;4.88;1.00;;;23.10;80.40;;;;;;5037000;28;20052;-74
2023/06/27 10:47:27;;;;;;;2.83;0.93;;;23.10;80.30;;;;;;5046118;28;20500;-74
2023/06/27 10:50:00;;;;;;;4.75;1.63;;;23.10;80.20;;;;;;5035107;28;20045;-74
2023/06/27 10:52:25;;;;;;;4.10;1.02;;;23.10;80.10;;;;;;5040882;28;20502;-72
2023/06/27 10:55:18;;;;;;;4.93;1.15;;;23.10;78.90;;;;;;5033976;28;20131;-72
2023/06/27 10:57:48;;;;;;;4.63;1.27;;;23.10;77.20;;;;;;5028734;28;20056;-70
2023/06/27 11:00:26;;;;;;;6.53;1.20;;;23.10;79.40;;;;;;5020931;28;20061;-70
2023/06/27 11:02:54;;;;;;;2.97;1.10;;;23.20;79.80;;;;;;5054239;28;20132;-70
2023/06/27 11:05:40;;;;;;;5.07;1.10;;;23.30;78.70;;;;;;5043275;28;20083;-69
2023/06/27 11:08:09;;;;;;;4.05;1.23;;;23.30;77.60;;;;;;5048341;28;20044;-70
2023/06/27 11:10:36;;;;;;;4.32;1.42;;;23.30;77.90;;;;;;5056243;28;20047;-71
2023/06/27 11:13:23;;;;;;;3.88;1.40;;;23.30;77.80;;;;;;5028514;28;20053;-70
2023/06/27 11:15:51;;;;;;;3.45;1.15;;;23.40;78.60;;;;;;5052806;28;20056;-70
2023/06/27 11:18:18;;;;;;;5.47;1.35;;;23.40;79.40;;;;;;5058894;28;20068;-71
2023/06/27 11:20:44;;;;;;;4.43;1.30;;;23.50;78.70;;;;;;5058659;28;20402;-71
2023/06/27 11:23:12;;;;;;;4.30;1.30;;;23.50;78.00;;;;;;5034970;28;20045;-72
2023/06/27 11:25:42;;;;;;;3.85;1.10;;;23.40;78.20;;;;;;5036319;28;20048;-71
2023/06/27 11:28:12;;;;;;;4.78;1.20;;;23.40;77.60;;;;;;5048819;28;20044;-72
2023/06/27 11:30:39;;;;;;;4.07;1.00;;;23.50;77.60;;;;;;5056002;28;20472;-71
2023/06/27 11:33:06;;;;;;;4.32;1.33;;;23.60;77.40;;;;;;5058786;28;20062;-71
2023/06/27 11:35:32;;;;;;;7.28;1.50;;;23.80;77.20;;;;;;5052857;28;20036;-71
2023/06/27 11:37:59;;;;;;;4.03;1.30;;;23.80;76.70;;;;;;5053803;28;20137;-70
2023/06/27 11:40:24;;;;;;;5.30;1.42;;;23.90;74.60;;;;;;5051179;28;20046;-71
2023/06/27 11:42:58;;;;;;;3.53;1.00;;;23.90;74.90;;;;;;5056013;28;20060;-71
2023/06/27 11:45:23;;;;;;;4.18;1.20;;;23.80;74.40;;;;;;5041796;28;20048;-71
2023/06/27 11:47:50;;;;;;;5.40;1.38;;;23.80;75.30;;;;;;5052898;28;20044;-70
2023/06/27 11:50:16;;;;;;;3.05;1.13;;;23.70;74.00;;;;;;5057553;28;20045;-71
2023/06/27 11:52:41;;;;;;;4.80;1.20;;;23.60;73.80;;;;;;5063078;28;20047;-71
2023/06/27 11:55:07;;;;;;;4.97;1.10;;;23.60;75.40;;;;;;5058779;28;20051;-71
2023/06/27 11:57:58;;;;;;;4.80;1.30;;;23.60;75.80;;;;;;5050880;28;20451;-71
2023/06/27 12:00:28;;;;;;;3.80;1.40;;;23.60;76.00;;;;;;5052202;28;20047;-71
2023/06/27 12:03:03;;;;;;;4.75;1.20;;;23.60;76.00;;;;;;5050651;28;20492;-71
2023/06/27 12:05:29;;;;;;;3.72;1.00;;;23.60;76.60;;;;;;5035984;28;20048;-71
2023/06/27 12:08:01;;;;;;;5.68;1.25;;;23.50;75.60;;;;;;5052244;28;20094;-71
2023/06/27 12:10:29;;;;;;;4.90;1.10;;;23.50;75.80;;;;;;5057816;28;20040;-70
2023/06/27 12:12:55;;;;;;;10.98;1.50;;;23.40;76.10;;;;;;5055557;28;20039;-71
2023/06/27 12:15:21;;;;;;;7.93;1.80;;;23.40;76.10;;;;;;5059115;28;20037;-71
2023/06/27 12:18:03;;;;;;;4.15;1.30;;;23.30;75.90;;;;;;5053448;28;20049;-71
2023/06/27 12:20:42;;;;;;;10.73;1.50;;;23.10;76.40;;;;;;5057731;28;21225;-71
2023/06/27 12:23:09;;;;;;;5.20;1.20;;;23.00;78.00;;;;;;5046032;28;20068;-71
2023/06/27 12:25:39;;;;;;;7.60;1.67;;;22.90;78.70;;;;;;5032068;28;20051;-70
2023/06/27 12:28:06;;;;;;;7.43;1.33;;;22.90;78.90;;;;;;5053612;28;20047;-71
2023/06/27 12:30:32;;;;;;;3.75;1.10;;;22.80;78.50;;;;;;5034035;28;20036;-72
2023/06/27 12:33:01;;;;;;;6.15;1.40;;;22.70;78.70;;;;;;5034915;28;20059;-73
2023/06/27 12:35:27;;;;;;;4.53;1.30;;;22.60;78.40;;;;;;5056952;28;20033;-73
2023/06/27 12:37:53;;;;;;;3.40;1.20;;;22.50;78.90;;;;;;5057806;28;20050;-72
2023/06/27 12:40:22;;;;;;;5.00;1.45;;;22.50;79.10;;;;;;5052745;28;20389;-72
2023/06/27 12:42:52;;;;;;;6.13;1.35;;;22.50;79.20;;;;;;5062312;28;20111;-72
2023/06/27 12:45:19;;;;;;;3.42;1.23;;;22.50;79.50;;;;;;5038237;28;20396;-72